Aviation Digital Data Service (ADDS)

Output produced by METARs form (1415 UTC 01 October 2014)
found at http://www.aviationweather.gov/adds/metars/
 
KWWD 011355Z AUTO 01010KT 10SM BKN011 OVC019 18/14 A3002 RMK AO1